Disclaimer

Please do not use the information listed here in-flight or in-navigation, as they are not provided to us by the airports but are provided by volunteers, so they might be outdated.

Search


Regions


Airport information page

No radio frequency information is available.

Airport informations:
Latitude: 54° 05' 00.00" N
Longitude: 004° 37' 26.00" W
Elevation: 52 feet - 16 meters
Operating hours: Remarks
Operating agency: Civil government, landing fees and diplomatic clearance may be required
Timezone: UTC 0(+1DT)
Fuel: Jet A1, without icing nhibitor.

100/130 MIL Spec, low lead, aviation gasoline (BLUE)

Runway information:
03/21 - 3934 x 151 feet< - >1199 x 46 meters
08/26 - 5751 x 151 feet< - >1753 x 46 meters

Recent METARs:
EGNS 161020Z 21012KT 9999 FEW028 09/04 Q1000 NOSIG
EGNS 161050Z 21012KT 9999 FEW025 09/04 Q1000 NOSIG
EGNS 161120Z 21014KT 9999 VCSH FEW023 09/05 Q1000 TEMPO 8000 RA

Airport on the map: